KJSL/JSL METAR and TAF weather

Enter ICAO airport designator
Station Type Date Time Source
KJSL METAR 2019/06/17 04:20 UTC NOAA

KJSL 170420Z AUTO 10020KT 10SM 28/24 A2994 RMK A01


Station Type Date Time Source
KJSL Decoded METAR 2019/06/17 04:20 UTC NOAA

Station name not available
Jun 17, 2019 - 12:20 AM EDT / 2019.06.17 0420 UTC
Wind: from the E (100 degrees) at 23 MPH (20 KT):0
Visibility: 10 mile(s):0
Temperature: 82 F (28 C)
Dew Point: 75 F (24 C)
Relative Humidity: 78%
Pressure (altimeter): 29.94 in. Hg (1013 hPa)
ob: KJSL 170420Z AUTO 10020KT 10SM 28/24 A2994 RMK A01
cycle: 4

Station Type Date Time Source
KJSL TAF UTC NOAA

Error!

Example: see airport list